sensor_id;sensor_type;location;lat;lon;timestamp;P1;durP1;ratioP1;P2;durP2;ratioP2
1350;SDS011;669;50.206;9.998;2023-02-23T00:01:36;3.40;;;3.00;;
1350;SDS011;669;50.206;9.998;2023-02-23T00:04:06;2.77;;;2.57;;
1350;SDS011;669;50.206;9.998;2023-02-23T00:06:36;3.47;;;3.17;;
1350;SDS011;669;50.206;9.998;2023-02-23T00:09:04;2.70;;;2.50;;
1350;SDS011;669;50.206;9.998;2023-02-23T00:11:39;2.67;;;2.50;;
1350;SDS011;669;50.206;9.998;2023-02-23T00:14:07;3.03;;;2.77;;
1350;SDS011;669;50.206;9.998;2023-02-23T00:16:35;3.57;;;2.90;;
1350;SDS011;669;50.206;9.998;2023-02-23T00:19:03;3.20;;;2.90;;
1350;SDS011;669;50.206;9.998;2023-02-23T00:21:33;3.57;;;3.27;;
1350;SDS011;669;50.206;9.998;2023-02-23T00:24:04;3.47;;;3.17;;
1350;SDS011;669;50.206;9.998;2023-02-23T00:26:34;2.90;;;2.70;;
1350;SDS011;669;50.206;9.998;2023-02-23T00:29:05;3.10;;;2.90;;
1350;SDS011;669;50.206;9.998;2023-02-23T00:31:34;3.13;;;2.93;;
1350;SDS011;669;50.206;9.998;2023-02-23T00:34:04;2.93;;;2.73;;
1350;SDS011;669;50.206;9.998;2023-02-23T00:36:33;2.97;;;2.77;;
1350;SDS011;669;50.206;9.998;2023-02-23T00:39:05;3.20;;;2.90;;
1350;SDS011;669;50.206;9.998;2023-02-23T00:41:44;2.90;;;2.57;;
1350;SDS011;669;50.206;9.998;2023-02-23T00:44:12;3.03;;;2.80;;
1350;SDS011;669;50.206;9.998;2023-02-23T00:46:41;3.40;;;3.10;;
1350;SDS011;669;50.206;9.998;2023-02-23T00:49:10;2.80;;;2.60;;
1350;SDS011;669;50.206;9.998;2023-02-23T00:51:40;3.70;;;3.40;;
1350;SDS011;669;50.206;9.998;2023-02-23T00:54:09;4.30;;;4.00;;
1350;SDS011;669;50.206;9.998;2023-02-23T00:56:38;3.90;;;3.50;;
1350;SDS011;669;50.206;9.998;2023-02-23T00:59:07;3.03;;;2.83;;
1350;SDS011;669;50.206;9.998;2023-02-23T01:01:35;3.97;;;3.63;;
1350;SDS011;669;50.206;9.998;2023-02-23T01:04:04;3.77;;;3.47;;
1350;SDS011;669;50.206;9.998;2023-02-23T01:06:32;3.43;;;3.13;;
1350;SDS011;669;50.206;9.998;2023-02-23T01:09:07;5.60;;;3.60;;
1350;SDS011;669;50.206;9.998;2023-02-23T01:11:38;4.17;;;3.63;;
1350;SDS011;669;50.206;9.998;2023-02-23T01:14:08;3.33;;;3.03;;
1350;SDS011;669;50.206;9.998;2023-02-23T01:16:36;5.23;;;3.37;;
1350;SDS011;669;50.206;9.998;2023-02-23T01:19:05;3.63;;;3.33;;
1350;SDS011;669;50.206;9.998;2023-02-23T01:21:34;3.83;;;3.50;;
1350;SDS011;669;50.206;9.998;2023-02-23T01:24:03;4.30;;;3.90;;
1350;SDS011;669;50.206;9.998;2023-02-23T01:26:34;4.30;;;3.30;;
1350;SDS011;669;50.206;9.998;2023-02-23T01:29:05;4.80;;;4.40;;
1350;SDS011;669;50.206;9.998;2023-02-23T01:31:35;5.50;;;5.00;;
1350;SDS011;669;50.206;9.998;2023-02-23T01:34:05;4.60;;;4.20;;
1350;SDS011;669;50.206;9.998;2023-02-23T01:36:34;3.97;;;3.67;;
1350;SDS011;669;50.206;9.998;2023-02-23T01:39:04;6.37;;;5.77;;
1350;SDS011;669;50.206;9.998;2023-02-23T01:41:36;4.77;;;4.27;;
1350;SDS011;669;50.206;9.998;2023-02-23T01:44:57;4.90;;;3.93;;
1350;SDS011;669;50.206;9.998;2023-02-23T01:47:15;4.37;;;3.83;;
1350;SDS011;669;50.206;9.998;2023-02-23T01:49:45;3.57;;;3.27;;
1350;SDS011;669;50.206;9.998;2023-02-23T01:52:13;4.50;;;4.00;;
1350;SDS011;669;50.206;9.998;2023-02-23T01:54:45;4.60;;;4.20;;
1350;SDS011;669;50.206;9.998;2023-02-23T01:57:18;4.63;;;4.23;;
1350;SDS011;669;50.206;9.998;2023-02-23T01:59:50;3.90;;;3.50;;
1350;SDS011;669;50.206;9.998;2023-02-23T02:02:20;3.93;;;3.57;;
1350;SDS011;669;50.206;9.998;2023-02-23T02:04:58;4.13;;;3.70;;
1350;SDS011;669;50.206;9.998;2023-02-23T02:07:27;4.70;;;4.20;;
1350;SDS011;669;50.206;9.998;2023-02-23T02:09:57;5.47;;;3.67;;
1350;SDS011;669;50.206;9.998;2023-02-23T02:12:44;5.63;;;4.50;;
1350;SDS011;669;50.206;9.998;2023-02-23T02:15:17;4.60;;;4.17;;
1350;SDS011;669;50.206;9.998;2023-02-23T02:17:47;5.17;;;4.53;;
1350;SDS011;669;50.206;9.998;2023-02-23T02:20:31;4.43;;;4.00;;
1350;SDS011;669;50.206;9.998;2023-02-23T02:23:32;4.73;;;4.33;;
1350;SDS011;669;50.206;9.998;2023-02-23T02:26:21;5.30;;;4.20;;
1350;SDS011;669;50.206;9.998;2023-02-23T02:35:23;4.57;;;4.17;;
1350;SDS011;669;50.206;9.998;2023-02-23T02:38:21;5.23;;;4.70;;
1350;SDS011;669;50.206;9.998;2023-02-23T02:41:01;6.70;;;4.67;;
1350;SDS011;669;50.206;9.998;2023-02-23T02:43:34;6.10;;;4.90;;
1350;SDS011;669;50.206;9.998;2023-02-23T02:46:13;4.73;;;4.20;;
1350;SDS011;669;50.206;9.998;2023-02-23T02:48:45;4.90;;;4.40;;
1350;SDS011;669;50.206;9.998;2023-02-23T02:51:21;5.87;;;4.57;;
1350;SDS011;669;50.206;9.998;2023-02-23T02:53:57;4.13;;;3.73;;
1350;SDS011;669;50.206;9.998;2023-02-23T02:56:33;4.13;;;3.70;;
1350;SDS011;669;50.206;9.998;2023-02-23T02:59:06;5.03;;;4.17;;
1350;SDS011;669;50.206;9.998;2023-02-23T03:01:55;5.37;;;4.53;;
1350;SDS011;669;50.206;9.998;2023-02-23T03:04:41;5.23;;;4.30;;
1350;SDS011;669;50.206;9.998;2023-02-23T03:07:28;5.53;;;3.80;;
1350;SDS011;669;50.206;9.998;2023-02-23T03:10:21;4.87;;;4.17;;
1350;SDS011;669;50.206;9.998;2023-02-23T03:13:16;6.60;;;4.20;;
1350;SDS011;669;50.206;9.998;2023-02-23T03:16:11;4.63;;;4.17;;
1350;SDS011;669;50.206;9.998;2023-02-23T03:19:06;5.90;;;5.30;;
1350;SDS011;669;50.206;9.998;2023-02-23T03:21:59;4.70;;;4.20;;
1350;SDS011;669;50.206;9.998;2023-02-23T03:24:53;5.47;;;4.90;;
1350;SDS011;669;50.206;9.998;2023-02-23T03:27:46;4.27;;;3.87;;
1350;SDS011;669;50.206;9.998;2023-02-23T03:30:39;4.40;;;4.00;;
1350;SDS011;669;50.206;9.998;2023-02-23T03:33:34;4.53;;;4.10;;
1350;SDS011;669;50.206;9.998;2023-02-23T03:36:23;6.30;;;5.70;;
1350;SDS011;669;50.206;9.998;2023-02-23T03:39:16;4.30;;;3.90;;
1350;SDS011;669;50.206;9.998;2023-02-23T03:42:06;4.37;;;3.97;;
1350;SDS011;669;50.206;9.998;2023-02-23T03:44:56;4.57;;;3.73;;
1350;SDS011;669;50.206;9.998;2023-02-23T03:47:42;3.83;;;3.53;;
1350;SDS011;669;50.206;9.998;2023-02-23T03:50:31;5.10;;;4.33;;
1350;SDS011;669;50.206;9.998;2023-02-23T03:53:23;5.50;;;4.57;;
1350;SDS011;669;50.206;9.998;2023-02-23T03:56:10;4.30;;;3.90;;
1350;SDS011;669;50.206;9.998;2023-02-23T03:59:00;3.70;;;3.40;;
1350;SDS011;669;50.206;9.998;2023-02-23T04:01:50;4.50;;;4.20;;
1350;SDS011;669;50.206;9.998;2023-02-23T04:04:38;4.73;;;4.30;;
1350;SDS011;669;50.206;9.998;2023-02-23T04:07:26;4.73;;;4.30;;
1350;SDS011;669;50.206;9.998;2023-02-23T04:10:13;4.67;;;4.27;;
1350;SDS011;669;50.206;9.998;2023-02-23T04:13:00;4.67;;;4.27;;
1350;SDS011;669;50.206;9.998;2023-02-23T04:15:44;4.80;;;4.07;;
1350;SDS011;669;50.206;9.998;2023-02-23T04:18:16;4.47;;;4.07;;
1350;SDS011;669;50.206;9.998;2023-02-23T04:20:47;5.20;;;4.67;;
1350;SDS011;669;50.206;9.998;2023-02-23T04:23:15;3.77;;;3.47;;
1350;SDS011;669;50.206;9.998;2023-02-23T04:25:43;4.40;;;4.00;;
1350;SDS011;669;50.206;9.998;2023-02-23T04:28:13;4.27;;;3.63;;
1350;SDS011;669;50.206;9.998;2023-02-23T04:30:41;5.50;;;4.67;;
1350;SDS011;669;50.206;9.998;2023-02-23T04:33:09;5.07;;;4.57;;
1350;SDS011;669;50.206;9.998;2023-02-23T04:35:38;4.27;;;3.90;;
1350;SDS011;669;50.206;9.998;2023-02-23T04:38:06;4.30;;;3.90;;
1350;SDS011;669;50.206;9.998;2023-02-23T04:40:34;5.57;;;4.53;;
1350;SDS011;669;50.206;9.998;2023-02-23T04:43:02;4.53;;;4.13;;
1350;SDS011;669;50.206;9.998;2023-02-23T04:45:30;5.40;;;4.87;;
1350;SDS011;669;50.206;9.998;2023-02-23T04:47:59;5.93;;;5.43;;
1350;SDS011;669;50.206;9.998;2023-02-23T04:50:27;7.97;;;6.40;;
1350;SDS011;669;50.206;9.998;2023-02-23T04:52:59;5.57;;;5.07;;
1350;SDS011;669;50.206;9.998;2023-02-23T04:55:27;7.37;;;6.17;;
1350;SDS011;669;50.206;9.998;2023-02-23T04:57:55;6.70;;;5.37;;
1350;SDS011;669;50.206;9.998;2023-02-23T05:00:25;5.60;;;5.10;;
1350;SDS011;669;50.206;9.998;2023-02-23T05:02:54;5.50;;;5.00;;
1350;SDS011;669;50.206;9.998;2023-02-23T05:05:22;5.03;;;4.13;;
1350;SDS011;669;50.206;9.998;2023-02-23T05:07:50;4.40;;;4.00;;
1350;SDS011;669;50.206;9.998;2023-02-23T05:10:21;4.30;;;3.90;;
1350;SDS011;669;50.206;9.998;2023-02-23T05:12:49;4.03;;;3.63;;
1350;SDS011;669;50.206;9.998;2023-02-23T05:15:17;4.97;;;4.20;;
1350;SDS011;669;50.206;9.998;2023-02-23T05:17:45;3.80;;;3.40;;
1350;SDS011;669;50.206;9.998;2023-02-23T05:20:13;5.30;;;4.80;;
1350;SDS011;669;50.206;9.998;2023-02-23T05:22:41;4.47;;;3.80;;
1350;SDS011;669;50.206;9.998;2023-02-23T05:25:09;4.00;;;3.70;;
1350;SDS011;669;50.206;9.998;2023-02-23T05:27:39;5.27;;;4.77;;
1350;SDS011;669;50.206;9.998;2023-02-23T05:30:08;4.50;;;4.10;;
1350;SDS011;669;50.206;9.998;2023-02-23T05:32:36;4.87;;;4.20;;
1350;SDS011;669;50.206;9.998;2023-02-23T05:35:04;5.10;;;4.70;;
1350;SDS011;669;50.206;9.998;2023-02-23T05:37:34;5.03;;;4.60;;
1350;SDS011;669;50.206;9.998;2023-02-23T05:40:02;4.77;;;4.23;;
1350;SDS011;669;50.206;9.998;2023-02-23T05:42:31;4.73;;;4.20;;
1350;SDS011;669;50.206;9.998;2023-02-23T05:45:00;4.00;;;3.70;;
1350;SDS011;669;50.206;9.998;2023-02-23T05:47:30;6.03;;;5.43;;
1350;SDS011;669;50.206;9.998;2023-02-23T05:50:00;6.10;;;5.50;;
1350;SDS011;669;50.206;9.998;2023-02-23T05:52:28;6.60;;;5.87;;
1350;SDS011;669;50.206;9.998;2023-02-23T05:54:56;5.50;;;4.70;;
1350;SDS011;669;50.206;9.998;2023-02-23T05:57:24;5.40;;;4.57;;
1350;SDS011;669;50.206;9.998;2023-02-23T05:59:52;6.33;;;5.40;;
1350;SDS011;669;50.206;9.998;2023-02-23T06:02:21;5.73;;;4.70;;
1350;SDS011;669;50.206;9.998;2023-02-23T06:04:49;5.20;;;4.70;;
1350;SDS011;669;50.206;9.998;2023-02-23T06:07:17;5.10;;;4.60;;
1350;SDS011;669;50.206;9.998;2023-02-23T06:09:45;6.10;;;5.37;;
1350;SDS011;669;50.206;9.998;2023-02-23T06:12:13;4.80;;;4.33;;
1350;SDS011;669;50.206;9.998;2023-02-23T06:14:41;5.13;;;4.63;;
1350;SDS011;669;50.206;9.998;2023-02-23T06:17:09;5.23;;;4.30;;
1350;SDS011;669;50.206;9.998;2023-02-23T06:19:38;5.70;;;4.90;;
1350;SDS011;669;50.206;9.998;2023-02-23T06:22:06;5.47;;;4.97;;
1350;SDS011;669;50.206;9.998;2023-02-23T06:24:34;5.00;;;4.50;;
1350;SDS011;669;50.206;9.998;2023-02-23T06:27:02;5.57;;;5.00;;
1350;SDS011;669;50.206;9.998;2023-02-23T06:29:30;5.27;;;4.87;;
1350;SDS011;669;50.206;9.998;2023-02-23T06:31:58;6.27;;;4.97;;
1350;SDS011;669;50.206;9.998;2023-02-23T06:34:26;5.60;;;5.10;;
1350;SDS011;669;50.206;9.998;2023-02-23T06:36:56;6.57;;;5.53;;
1350;SDS011;669;50.206;9.998;2023-02-23T06:39:24;5.50;;;5.07;;
1350;SDS011;669;50.206;9.998;2023-02-23T06:41:51;6.33;;;5.60;;
1350;SDS011;669;50.206;9.998;2023-02-23T06:44:19;5.57;;;4.90;;
1350;SDS011;669;50.206;9.998;2023-02-23T06:46:47;6.33;;;5.70;;
1350;SDS011;669;50.206;9.998;2023-02-23T06:49:15;6.67;;;6.00;;
1350;SDS011;669;50.206;9.998;2023-02-23T06:51:43;7.60;;;5.60;;
1350;SDS011;669;50.206;9.998;2023-02-23T06:54:13;6.40;;;5.80;;
1350;SDS011;669;50.206;9.998;2023-02-23T06:56:41;6.37;;;5.67;;
1350;SDS011;669;50.206;9.998;2023-02-23T06:59:09;6.70;;;5.77;;
1350;SDS011;669;50.206;9.998;2023-02-23T07:01:37;6.03;;;5.43;;
1350;SDS011;669;50.206;9.998;2023-02-23T07:04:05;6.60;;;5.07;;
1350;SDS011;669;50.206;9.998;2023-02-23T07:06:33;5.77;;;5.27;;
1350;SDS011;669;50.206;9.998;2023-02-23T07:09:01;4.73;;;4.33;;
1350;SDS011;669;50.206;9.998;2023-02-23T07:11:30;6.07;;;5.47;;
1350;SDS011;669;50.206;9.998;2023-02-23T07:13:58;7.70;;;6.40;;
1350;SDS011;669;50.206;9.998;2023-02-23T07:16:27;6.83;;;5.93;;
1350;SDS011;669;50.206;9.998;2023-02-23T07:18:55;6.20;;;5.30;;
1350;SDS011;669;50.206;9.998;2023-02-23T07:21:23;6.97;;;5.73;;
1350;SDS011;669;50.206;9.998;2023-02-23T07:23:52;5.33;;;4.93;;
1350;SDS011;669;50.206;9.998;2023-02-23T07:26:20;6.53;;;5.80;;
1350;SDS011;669;50.206;9.998;2023-02-23T07:28:49;5.73;;;5.10;;
1350;SDS011;669;50.206;9.998;2023-02-23T07:31:19;8.50;;;6.07;;
1350;SDS011;669;50.206;9.998;2023-02-23T07:33:47;5.43;;;4.90;;
1350;SDS011;669;50.206;9.998;2023-02-23T07:36:15;5.63;;;5.07;;
1350;SDS011;669;50.206;9.998;2023-02-23T07:38:43;7.07;;;6.00;;
1350;SDS011;669;50.206;9.998;2023-02-23T07:41:11;7.33;;;5.60;;
1350;SDS011;669;50.206;9.998;2023-02-23T07:43:39;6.53;;;5.57;;
1350;SDS011;669;50.206;9.998;2023-02-23T07:46:08;5.57;;;5.07;;
1350;SDS011;669;50.206;9.998;2023-02-23T07:48:36;5.77;;;4.90;;
1350;SDS011;669;50.206;9.998;2023-02-23T07:51:07;7.00;;;5.73;;
1350;SDS011;669;50.206;9.998;2023-02-23T07:53:36;8.67;;;6.17;;
1350;SDS011;669;50.206;9.998;2023-02-23T07:56:04;9.23;;;5.77;;
1350;SDS011;669;50.206;9.998;2023-02-23T07:58:33;5.90;;;5.20;;
1350;SDS011;669;50.206;9.998;2023-02-23T08:01:01;8.10;;;5.40;;
1350;SDS011;669;50.206;9.998;2023-02-23T08:03:31;5.33;;;4.83;;
1350;SDS011;669;50.206;9.998;2023-02-23T08:05:59;6.10;;;5.47;;
1350;SDS011;669;50.206;9.998;2023-02-23T08:08:27;5.70;;;5.10;;
1350;SDS011;669;50.206;9.998;2023-02-23T08:10:58;7.00;;;5.80;;
1350;SDS011;669;50.206;9.998;2023-02-23T08:13:27;7.10;;;5.83;;
1350;SDS011;669;50.206;9.998;2023-02-23T08:15:56;7.60;;;5.60;;
1350;SDS011;669;50.206;9.998;2023-02-23T08:18:25;9.03;;;6.60;;
1350;SDS011;669;50.206;9.998;2023-02-23T08:20:58;8.30;;;6.27;;
1350;SDS011;669;50.206;9.998;2023-02-23T08:23:27;8.73;;;6.20;;
1350;SDS011;669;50.206;9.998;2023-02-23T08:25:56;8.97;;;7.20;;
1350;SDS011;669;50.206;9.998;2023-02-23T08:28:26;10.80;;;6.37;;
1350;SDS011;669;50.206;9.998;2023-02-23T08:30:54;12.10;;;7.63;;
1350;SDS011;669;50.206;9.998;2023-02-23T08:33:24;8.33;;;7.47;;
1350;SDS011;669;50.206;9.998;2023-02-23T08:35:52;10.97;;;9.60;;
1350;SDS011;669;50.206;9.998;2023-02-23T08:38:21;10.63;;;8.50;;
1350;SDS011;669;50.206;9.998;2023-02-23T08:40:49;14.40;;;9.63;;
1350;SDS011;669;50.206;9.998;2023-02-23T08:43:18;10.00;;;8.53;;
1350;SDS011;669;50.206;9.998;2023-02-23T08:45:46;11.50;;;9.20;;
1350;SDS011;669;50.206;9.998;2023-02-23T08:48:14;10.83;;;8.40;;
1350;SDS011;669;50.206;9.998;2023-02-23T08:50:42;13.73;;;10.30;;
1350;SDS011;669;50.206;9.998;2023-02-23T08:53:14;10.90;;;8.57;;
1350;SDS011;669;50.206;9.998;2023-02-23T08:55:44;21.23;;;15.80;;
1350;SDS011;669;50.206;9.998;2023-02-23T08:58:13;17.80;;;12.90;;
1350;SDS011;669;50.206;9.998;2023-02-23T09:00:41;18.10;;;12.03;;
1350;SDS011;669;50.206;9.998;2023-02-23T09:03:08;18.60;;;12.87;;
1350;SDS011;669;50.206;9.998;2023-02-23T09:05:36;12.33;;;10.57;;
1350;SDS011;669;50.206;9.998;2023-02-23T09:08:04;11.53;;;9.80;;
1350;SDS011;669;50.206;9.998;2023-02-23T09:10:32;12.47;;;10.17;;
1350;SDS011;669;50.206;9.998;2023-02-23T09:13:02;22.63;;;15.17;;
1350;SDS011;669;50.206;9.998;2023-02-23T09:15:30;18.90;;;13.37;;
1350;SDS011;669;50.206;9.998;2023-02-23T09:17:58;20.30;;;16.80;;
1350;SDS011;669;50.206;9.998;2023-02-23T09:20:27;29.57;;;20.70;;
1350;SDS011;669;50.206;9.998;2023-02-23T09:22:55;27.57;;;18.80;;
1350;SDS011;669;50.206;9.998;2023-02-23T09:25:23;24.70;;;17.90;;
1350;SDS011;669;50.206;9.998;2023-02-23T09:27:52;30.80;;;20.10;;
1350;SDS011;669;50.206;9.998;2023-02-23T09:30:23;23.00;;;18.40;;
1350;SDS011;669;50.206;9.998;2023-02-23T09:32:52;22.70;;;16.90;;
1350;SDS011;669;50.206;9.998;2023-02-23T09:35:22;22.33;;;17.10;;
1350;SDS011;669;50.206;9.998;2023-02-23T09:37:52;20.80;;;14.90;;
1350;SDS011;669;50.206;9.998;2023-02-23T09:40:22;17.80;;;13.93;;
1350;SDS011;669;50.206;9.998;2023-02-23T09:42:55;24.90;;;18.33;;
1350;SDS011;669;50.206;9.998;2023-02-23T09:45:30;26.40;;;17.40;;
1350;SDS011;669;50.206;9.998;2023-02-23T09:48:08;31.07;;;22.67;;
1350;SDS011;669;50.206;9.998;2023-02-23T09:50:44;30.77;;;19.10;;
1350;SDS011;669;50.206;9.998;2023-02-23T09:53:20;27.40;;;19.37;;
1350;SDS011;669;50.206;9.998;2023-02-23T09:55:59;31.13;;;19.87;;
1350;SDS011;669;50.206;9.998;2023-02-23T09:58:32;28.73;;;19.77;;
1350;SDS011;669;50.206;9.998;2023-02-23T10:01:10;26.23;;;19.50;;
1350;SDS011;669;50.206;9.998;2023-02-23T10:04:05;35.33;;;22.47;;
1350;SDS011;669;50.206;9.998;2023-02-23T10:06:38;31.13;;;20.77;;
1350;SDS011;669;50.206;9.998;2023-02-23T10:09:13;30.47;;;18.83;;
1350;SDS011;669;50.206;9.998;2023-02-23T10:11:47;24.20;;;17.60;;
1350;SDS011;669;50.206;9.998;2023-02-23T10:14:31;34.23;;;19.27;;
1350;SDS011;669;50.206;9.998;2023-02-23T10:17:18;26.87;;;17.77;;
1350;SDS011;669;50.206;9.998;2023-02-23T10:19:55;27.77;;;17.37;;
1350;SDS011;669;50.206;9.998;2023-02-23T10:22:30;30.70;;;21.77;;
1350;SDS011;669;50.206;9.998;2023-02-23T10:25:01;30.73;;;22.13;;
1350;SDS011;669;50.206;9.998;2023-02-23T10:27:35;34.17;;;21.73;;
1350;SDS011;669;50.206;9.998;2023-02-23T10:30:13;29.03;;;20.60;;
1350;SDS011;669;50.206;9.998;2023-02-23T10:32:48;22.40;;;17.47;;
1350;SDS011;669;50.206;9.998;2023-02-23T10:35:20;27.83;;;18.30;;
1350;SDS011;669;50.206;9.998;2023-02-23T10:37:50;22.17;;;17.53;;
1350;SDS011;669;50.206;9.998;2023-02-23T10:40:19;23.53;;;16.83;;
1350;SDS011;669;50.206;9.998;2023-02-23T10:42:48;21.67;;;16.50;;
1350;SDS011;669;50.206;9.998;2023-02-23T10:45:18;24.70;;;17.60;;
1350;SDS011;669;50.206;9.998;2023-02-23T10:47:53;23.63;;;16.97;;
1350;SDS011;669;50.206;9.998;2023-02-23T10:50:24;24.20;;;14.57;;
1350;SDS011;669;50.206;9.998;2023-02-23T10:52:55;19.87;;;15.40;;
1350;SDS011;669;50.206;9.998;2023-02-23T10:55:26;17.60;;;13.83;;
1350;SDS011;669;50.206;9.998;2023-02-23T10:58:03;25.33;;;16.40;;
1350;SDS011;669;50.206;9.998;2023-02-23T11:00:36;17.50;;;14.20;;
1350;SDS011;669;50.206;9.998;2023-02-23T11:03:16;18.30;;;13.00;;
1350;SDS011;669;50.206;9.998;2023-02-23T11:05:49;22.07;;;16.70;;
1350;SDS011;669;50.206;9.998;2023-02-23T11:08:20;21.73;;;16.50;;
1350;SDS011;669;50.206;9.998;2023-02-23T11:11:01;18.60;;;15.17;;
1350;SDS011;669;50.206;9.998;2023-02-23T11:13:36;24.40;;;17.23;;
1350;SDS011;669;50.206;9.998;2023-02-23T11:16:07;19.80;;;14.40;;
1350;SDS011;669;50.206;9.998;2023-02-23T11:18:40;21.20;;;16.03;;
1350;SDS011;669;50.206;9.998;2023-02-23T11:21:16;21.47;;;16.20;;
1350;SDS011;669;50.206;9.998;2023-02-23T11:23:49;24.07;;;16.07;;
1350;SDS011;669;50.206;9.998;2023-02-23T11:26:20;20.47;;;14.77;;
1350;SDS011;669;50.206;9.998;2023-02-23T11:28:54;18.17;;;14.03;;
1350;SDS011;669;50.206;9.998;2023-02-23T11:31:27;18.13;;;12.83;;
1350;SDS011;669;50.206;9.998;2023-02-23T11:33:59;20.23;;;14.80;;
1350;SDS011;669;50.206;9.998;2023-02-23T11:36:32;20.47;;;14.13;;
1350;SDS011;669;50.206;9.998;2023-02-23T11:39:03;20.93;;;14.43;;
1350;SDS011;669;50.206;9.998;2023-02-23T11:41:44;17.47;;;12.80;;
1350;SDS011;669;50.206;9.998;2023-02-23T11:44:18;22.40;;;15.23;;
1350;SDS011;669;50.206;9.998;2023-02-23T11:46:48;19.17;;;13.40;;
1350;SDS011;669;50.206;9.998;2023-02-23T11:49:22;23.50;;;16.60;;
1350;SDS011;669;50.206;9.998;2023-02-23T11:52:10;19.37;;;14.80;;
1350;SDS011;669;50.206;9.998;2023-02-23T11:54:41;19.00;;;13.23;;
1350;SDS011;669;50.206;9.998;2023-02-23T11:57:20;19.83;;;14.50;;
1350;SDS011;669;50.206;9.998;2023-02-23T11:59:49;17.77;;;13.10;;
1350;SDS011;669;50.206;9.998;2023-02-23T12:02:20;19.43;;;14.30;;
1350;SDS011;669;50.206;9.998;2023-02-23T12:04:52;16.53;;;11.70;;
1350;SDS011;669;50.206;9.998;2023-02-23T12:07:34;17.73;;;12.20;;
1350;SDS011;669;50.206;9.998;2023-02-23T12:10:11;17.63;;;13.40;;
1350;SDS011;669;50.206;9.998;2023-02-23T12:12:45;15.10;;;11.03;;
1350;SDS011;669;50.206;9.998;2023-02-23T12:15:27;14.27;;;11.27;;
1350;SDS011;669;50.206;9.998;2023-02-23T12:18:05;18.70;;;11.93;;
1350;SDS011;669;50.206;9.998;2023-02-23T12:20:39;15.27;;;11.63;;
1350;SDS011;669;50.206;9.998;2023-02-23T12:23:11;19.83;;;12.90;;
1350;SDS011;669;50.206;9.998;2023-02-23T12:25:44;18.57;;;14.10;;
1350;SDS011;669;50.206;9.998;2023-02-23T12:28:16;14.83;;;11.93;;
1350;SDS011;669;50.206;9.998;2023-02-23T12:30:52;17.80;;;13.23;;
1350;SDS011;669;50.206;9.998;2023-02-23T12:33:26;16.23;;;11.90;;
1350;SDS011;669;50.206;9.998;2023-02-23T12:36:02;20.90;;;13.77;;
1350;SDS011;669;50.206;9.998;2023-02-23T12:38:42;15.83;;;11.77;;
1350;SDS011;669;50.206;9.998;2023-02-23T12:41:16;16.20;;;11.13;;
1350;SDS011;669;50.206;9.998;2023-02-23T12:43:47;14.73;;;11.93;;
1350;SDS011;669;50.206;9.998;2023-02-23T12:46:20;20.20;;;13.50;;
1350;SDS011;669;50.206;9.998;2023-02-23T12:48:55;15.50;;;12.27;;
1350;SDS011;669;50.206;9.998;2023-02-23T12:51:32;16.00;;;12.77;;
1350;SDS011;669;50.206;9.998;2023-02-23T12:54:02;19.03;;;14.30;;
1350;SDS011;669;50.206;9.998;2023-02-23T12:56:32;17.27;;;14.00;;
1350;SDS011;669;50.206;9.998;2023-02-23T13:02:11;15.73;;;13.23;;
1350;SDS011;669;50.206;9.998;2023-02-23T13:04:46;17.60;;;13.27;;
1350;SDS011;669;50.206;9.998;2023-02-23T13:07:47;20.77;;;15.60;;
1350;SDS011;669;50.206;9.998;2023-02-23T13:10:36;20.90;;;14.43;;
1350;SDS011;669;50.206;9.998;2023-02-23T13:13:14;17.40;;;13.27;;
1350;SDS011;669;50.206;9.998;2023-02-23T13:15:52;23.20;;;16.60;;
1350;SDS011;669;50.206;9.998;2023-02-23T13:18:26;19.03;;;13.00;;
1350;SDS011;669;50.206;9.998;2023-02-23T13:21:00;17.10;;;13.97;;
1350;SDS011;669;50.206;9.998;2023-02-23T13:23:35;17.70;;;12.47;;
1350;SDS011;669;50.206;9.998;2023-02-23T13:26:10;20.77;;;15.07;;
1350;SDS011;669;50.206;9.998;2023-02-23T13:28:51;19.37;;;13.20;;
1350;SDS011;669;50.206;9.998;2023-02-23T13:31:25;19.90;;;13.07;;
1350;SDS011;669;50.206;9.998;2023-02-23T13:33:55;16.87;;;12.50;;
1350;SDS011;669;50.206;9.998;2023-02-23T13:36:26;16.30;;;12.90;;
1350;SDS011;669;50.206;9.998;2023-02-23T13:39:07;20.37;;;12.50;;
1350;SDS011;669;50.206;9.998;2023-02-23T13:41:55;16.33;;;12.03;;
1350;SDS011;669;50.206;9.998;2023-02-23T13:44:32;17.23;;;11.67;;
1350;SDS011;669;50.206;9.998;2023-02-23T13:47:05;17.23;;;11.33;;
1350;SDS011;669;50.206;9.998;2023-02-23T13:49:45;16.73;;;11.93;;
1350;SDS011;669;50.206;9.998;2023-02-23T13:52:20;16.57;;;12.27;;
1350;SDS011;669;50.206;9.998;2023-02-23T13:54:54;13.43;;;9.97;;
1350;SDS011;669;50.206;9.998;2023-02-23T13:57:28;15.90;;;10.50;;
1350;SDS011;669;50.206;9.998;2023-02-23T13:59:57;15.97;;;10.90;;
1350;SDS011;669;50.206;9.998;2023-02-23T14:02:32;13.83;;;10.63;;
1350;SDS011;669;50.206;9.998;2023-02-23T14:05:04;14.30;;;10.07;;
1350;SDS011;669;50.206;9.998;2023-02-23T14:07:42;12.20;;;9.03;;
1350;SDS011;669;50.206;9.998;2023-02-23T14:10:16;10.60;;;8.67;;
1350;SDS011;669;50.206;9.998;2023-02-23T14:13:03;13.93;;;10.07;;
1350;SDS011;669;50.206;9.998;2023-02-23T14:15:41;14.40;;;10.30;;
1350;SDS011;669;50.206;9.998;2023-02-23T14:18:26;11.90;;;9.70;;
1350;SDS011;669;50.206;9.998;2023-02-23T14:20:57;12.53;;;9.70;;
1350;SDS011;669;50.206;9.998;2023-02-23T14:23:35;14.00;;;9.90;;
1350;SDS011;669;50.206;9.998;2023-02-23T14:26:34;12.10;;;8.10;;
1350;SDS011;669;50.206;9.998;2023-02-23T14:29:19;12.07;;;9.70;;
1350;SDS011;669;50.206;9.998;2023-02-23T14:31:58;13.30;;;9.00;;
1350;SDS011;669;50.206;9.998;2023-02-23T14:34:51;12.57;;;9.87;;
1350;SDS011;669;50.206;9.998;2023-02-23T14:37:23;10.27;;;7.70;;
1350;SDS011;669;50.206;9.998;2023-02-23T14:39:59;10.37;;;8.37;;
1350;SDS011;669;50.206;9.998;2023-02-23T14:42:35;12.40;;;9.47;;
1350;SDS011;669;50.206;9.998;2023-02-23T14:45:11;12.90;;;8.93;;
1350;SDS011;669;50.206;9.998;2023-02-23T14:47:46;11.17;;;9.10;;
1350;SDS011;669;50.206;9.998;2023-02-23T14:50:18;13.77;;;10.20;;
1350;SDS011;669;50.206;9.998;2023-02-23T14:52:51;11.60;;;9.23;;
1350;SDS011;669;50.206;9.998;2023-02-23T14:55:23;9.43;;;7.90;;
1350;SDS011;669;50.206;9.998;2023-02-23T14:57:55;10.47;;;9.10;;
1350;SDS011;669;50.206;9.998;2023-02-23T15:00:25;10.77;;;8.40;;
1350;SDS011;669;50.206;9.998;2023-02-23T15:02:55;9.87;;;8.27;;
1350;SDS011;669;50.206;9.998;2023-02-23T15:05:26;9.13;;;7.63;;
1350;SDS011;669;50.206;9.998;2023-02-23T15:07:56;9.30;;;7.67;;
1350;SDS011;669;50.206;9.998;2023-02-23T15:10:28;9.60;;;8.07;;
1350;SDS011;669;50.206;9.998;2023-02-23T15:13:00;11.50;;;8.30;;
1350;SDS011;669;50.206;9.998;2023-02-23T15:15:35;8.90;;;7.60;;
1350;SDS011;669;50.206;9.998;2023-02-23T15:21:33;11.50;;;9.03;;
1350;SDS011;669;50.206;9.998;2023-02-23T15:24:06;13.47;;;10.37;;
1350;SDS011;669;50.206;9.998;2023-02-23T15:26:37;9.80;;;7.83;;
1350;SDS011;669;50.206;9.998;2023-02-23T15:29:11;12.40;;;9.30;;
1350;SDS011;669;50.206;9.998;2023-02-23T15:31:41;11.47;;;9.40;;
1350;SDS011;669;50.206;9.998;2023-02-23T15:34:15;13.27;;;9.93;;
1350;SDS011;669;50.206;9.998;2023-02-23T15:36:46;13.10;;;10.10;;
1350;SDS011;669;50.206;9.998;2023-02-23T15:39:17;11.77;;;9.57;;
1350;SDS011;669;50.206;9.998;2023-02-23T15:41:59;16.37;;;9.97;;
1350;SDS011;669;50.206;9.998;2023-02-23T15:44:29;14.07;;;10.77;;
1350;SDS011;669;50.206;9.998;2023-02-23T15:47:19;14.27;;;9.90;;
1350;SDS011;669;50.206;9.998;2023-02-23T15:49:59;14.07;;;10.97;;
1350;SDS011;669;50.206;9.998;2023-02-23T15:52:33;18.30;;;11.77;;
1350;SDS011;669;50.206;9.998;2023-02-23T15:55:08;17.07;;;10.20;;
1350;SDS011;669;50.206;9.998;2023-02-23T15:57:44;15.57;;;10.03;;
1350;SDS011;669;50.206;9.998;2023-02-23T16:00:18;12.33;;;9.23;;
1350;SDS011;669;50.206;9.998;2023-02-23T16:02:58;13.60;;;10.20;;
1350;SDS011;669;50.206;9.998;2023-02-23T16:05:29;14.87;;;9.43;;
1350;SDS011;669;50.206;9.998;2023-02-23T16:08:16;14.27;;;10.63;;
1350;SDS011;669;50.206;9.998;2023-02-23T16:10:48;12.67;;;9.77;;